createdAt,value
2023-07-05T00:08:12.023Z,1.50
2023-07-05T00:18:14.978Z,0.90
2023-07-05T00:28:19.488Z,1.00
2023-07-05T00:38:23.754Z,1.00
2023-07-05T00:48:34.343Z,0.83
2023-07-05T00:58:37.992Z,1.17
2023-07-05T01:08:42.323Z,0.83
2023-07-05T01:18:53.196Z,0.87
2023-07-05T01:29:24.940Z,1.00
2023-07-05T01:39:29.305Z,0.80
2023-07-05T01:49:42.911Z,0.80
2023-07-05T01:59:56.728Z,0.80
2023-07-05T02:10:00.825Z,1.13
2023-07-05T02:20:06.062Z,1.07
2023-07-05T02:30:10.660Z,1.77
2023-07-05T02:40:15.344Z,2.93
2023-07-05T02:50:18.761Z,1.70
2023-07-05T03:00:23.845Z,1.20
2023-07-05T03:10:26.791Z,1.10
2023-07-05T03:20:31.106Z,1.17
2023-07-05T03:30:37.297Z,1.23
2023-07-05T03:40:42.122Z,1.00
2023-07-05T03:50:45.408Z,1.30
2023-07-05T04:00:49.789Z,1.10
2023-07-05T04:10:53.050Z,1.10
2023-07-05T04:20:58.087Z,1.10
2023-07-05T04:31:01.574Z,1.10
2023-07-05T04:41:06.216Z,1.43
2023-07-05T04:51:09.629Z,1.50
2023-07-05T05:01:15.584Z,1.47
2023-07-05T05:11:18.777Z,1.70
2023-07-05T05:21:23.316Z,1.60
2023-07-05T05:31:26.210Z,1.80
2023-07-05T05:41:30.726Z,1.80
2023-07-05T05:51:33.713Z,1.80
2023-07-05T06:01:38.512Z,1.67
2023-07-05T06:11:41.686Z,1.70
2023-07-05T06:21:46.189Z,1.80
2023-07-05T06:31:49.157Z,1.13
2023-07-05T06:41:53.531Z,1.47
2023-07-05T06:51:56.834Z,1.53
2023-07-05T07:02:02.036Z,1.07
2023-07-05T07:12:07.892Z,1.00
2023-07-05T07:22:13.326Z,3.00
2023-07-05T07:32:16.927Z,0.70
2023-07-05T07:42:21.337Z,0.63
2023-07-05T07:52:24.522Z,0.60
2023-07-05T08:02:28.814Z,0.57
2023-07-05T08:12:31.982Z,0.50
2023-07-05T08:22:36.309Z,0.60
2023-07-05T08:32:40.016Z,0.40
2023-07-05T08:42:57.509Z,0.70
2023-07-05T08:53:06.646Z,0.60
2023-07-05T09:03:13.478Z,0.40
2023-07-05T09:13:23.290Z,0.47
2023-07-05T09:23:35.258Z,0.40
2023-07-05T09:33:43.321Z,0.50
2023-07-05T09:43:47.638Z,0.60
2023-07-05T09:53:53.662Z,0.80
2023-07-05T10:03:59.776Z,0.53
2023-07-05T10:14:05.709Z,0.80
2023-07-05T10:24:14.726Z,0.60
2023-07-05T10:34:21.811Z,0.68
2023-07-05T10:44:32.831Z,0.68
2023-07-05T10:54:41.662Z,0.75
2023-07-05T11:04:51.156Z,0.90
2023-07-05T11:14:54.853Z,0.70
2023-07-05T11:24:59.521Z,0.68
2023-07-05T11:35:05.032Z,0.43
2023-07-05T11:55:32.730Z,0.68
2023-07-05T12:05:37.777Z,1.00
2023-07-05T12:15:41.817Z,0.93
2023-07-05T12:25:51.460Z,0.70
2023-07-05T12:36:09.272Z,0.85
2023-07-05T12:46:17.920Z,0.98
2023-07-05T12:56:32.208Z,0.90
2023-07-05T13:06:37.377Z,0.90
2023-07-05T13:16:51.988Z,1.00
2023-07-05T13:26:57.858Z,0.70
2023-07-05T13:37:04.152Z,1.00
2023-07-05T13:47:09.018Z,0.90
2023-07-05T13:57:17.125Z,0.47
2023-07-05T14:07:21.607Z,0.60
2023-07-05T14:17:26.482Z,0.75
2023-07-05T14:27:31.244Z,0.85
2023-07-05T14:37:34.609Z,0.77
2023-07-05T14:47:39.275Z,0.80
2023-07-05T14:57:43.600Z,1.00
2023-07-05T15:07:48.122Z,0.90
2023-07-05T15:17:51.347Z,0.70
2023-07-05T15:27:56.085Z,0.77
2023-07-05T15:37:59.123Z,0.60
2023-07-05T15:48:04.357Z,0.57
2023-07-05T15:58:07.506Z,0.70
2023-07-05T16:08:12.164Z,0.60
2023-07-05T16:18:15.172Z,0.43
2023-07-05T16:28:19.899Z,0.53
2023-07-05T16:38:23.761Z,0.70
2023-07-05T16:48:28.597Z,0.80
2023-07-05T16:58:31.831Z,0.60
2023-07-05T17:08:38.042Z,0.80
2023-07-05T17:18:41.080Z,0.67
2023-07-05T17:28:46.984Z,0.77
2023-07-05T17:38:50.798Z,0.70
2023-07-05T17:48:57.047Z,0.60
2023-07-05T17:59:01.445Z,0.47
2023-07-05T18:09:06.438Z,0.60
2023-07-05T18:19:10.296Z,0.40
2023-07-05T18:29:15.031Z,0.60
2023-07-05T18:39:19.200Z,0.60
2023-07-05T18:49:23.766Z,0.63
2023-07-05T18:59:27.887Z,0.80
2023-07-05T19:09:32.117Z,0.80
2023-07-05T19:19:35.492Z,0.90
2023-07-05T19:29:40.644Z,0.73
2023-07-05T19:39:43.853Z,1.10
2023-07-05T19:49:48.015Z,0.80
2023-07-05T19:59:51.067Z,0.80
2023-07-05T20:09:55.631Z,1.20
2023-07-05T20:19:59.450Z,0.70
2023-07-05T20:30:04.432Z,0.80
2023-07-05T20:40:11.367Z,0.60
2023-07-05T20:50:16.045Z,1.00
2023-07-05T21:00:19.915Z,1.00
2023-07-05T21:10:25.248Z,0.70
2023-07-05T21:20:28.475Z,0.67
2023-07-05T21:30:34.387Z,0.83
2023-07-05T21:40:38.060Z,0.67
2023-07-05T21:50:47.542Z,0.83
2023-07-05T22:00:51.491Z,0.90
2023-07-05T22:10:56.748Z,1.20
2023-07-05T22:20:59.996Z,0.90
2023-07-05T22:31:04.694Z,1.00
2023-07-05T22:41:07.620Z,0.80
2023-07-05T22:51:12.271Z,0.90
2023-07-05T23:01:15.359Z,1.00
2023-07-05T23:11:20.115Z,1.03
2023-07-05T23:21:23.301Z,1.00
2023-07-05T23:31:29.826Z,1.07
2023-07-05T23:41:33.607Z,1.10
2023-07-05T23:51:38.392Z,1.27
